Flight Track Log - Related Links

Times and Time Zones

All times are in EST time to prevent confusion due to time zone crossing. See the AWE1988 flight status page for this flight to view local times or setup timezone preferences in your user account.

Time Position Orientation Groundspeed Altitude Reporting Facility
EST Latitude Longitude Course Direction KTS MPH feet Rate Location/Type
Sun 12:18:53 PM 35.2347 -80.9392 109° East 178 205 1,600  Level Atlanta Center
Sun 12:19:18 PM 35.2597 -80.9381 North 195 224 2,300 2,663 Climbing Atlanta Center
Sun 12:21:51 PM 35.2939 -80.7231 79° East 418 481 9,500 2,479 Climbing Atlanta Center
Sun 12:22:00 PM 35.6267 -80.6034 72° East  Level Estimated
Sun 12:22:51 PM 35.2994 -80.6236 86° East 360 414 11,100  Level Atlanta Center
Sun 12:23:00 PM 35.7298 -80.5164 71° East  Level Estimated
Sun 12:23:51 PM 35.3231 -80.5056 76° East 349 402 13,700  Level Atlanta Center
Sun 12:24:00 PM 35.6880 -80.3713 109° East  Level FlightAware Approximate
Sun 12:25:43 PM 35.3944 -80.2803 69° East 400 460 17,900  Level Washington Center
Sun 12:26:41 PM 35.4328 -80.1475 70° East 400 460 20,000 1,983 Climbing Washington Center
Sun 12:27:41 PM 35.4672 -80.0092 73° East 405 466 21,800 1,869 Climbing Washington Center
Sun 12:28:43 PM 35.5039 -79.8656 73° East 417 480 23,800 1,820 Climbing Washington Center
Sun 12:29:43 PM 35.5403 -79.7222 73° East 429 494 25,500 1,627 Climbing Washington Center
Sun 12:30:41 PM 35.5853 -79.5586 71° East 440 506 27,000 1,412 Climbing Washington Center
Sun 12:31:42 PM 35.6211 -79.4222 72° East 460 529 28,300 1,240 Climbing Washington Center
Sun 12:32:42 PM 35.6803 -79.2692 65° Northeast 455 524 29,500 1,210 Climbing Washington Center
Sun 12:33:41 PM 35.7411 -79.1208 63° Northeast 461 531 30,700 1,361 Climbing Washington Center
Sun 12:34:41 PM 35.7994 -78.9800 63° Northeast 466 536 32,200 1,150 Climbing Washington Center
Sun 12:35:41 PM 35.8556 -78.8364 64° Northeast 466 536 33,000 393 Climbing Washington Center
Sun 12:36:43 PM 35.9175 -78.6981 61° Northeast 456 525 33,000  Level Washington Center
Sun 12:37:43 PM 35.9817 -78.5619 60° Northeast 456 525 33,000  Level Washington Center
Sun 12:38:42 PM 36.0472 -78.4308 58° Northeast 451 519 33,000  Level Washington Center
Sun 12:39:43 PM 36.1131 -78.2969 59° Northeast 451 519 33,000  Level Washington Center
Sun 12:40:41 PM 36.1744 -78.1625 60° Northeast 451 519 33,000  Level Washington Center
Sun 12:41:41 PM 36.2397 -78.0281 59° Northeast 451 519 33,000  Level Washington Center
Sun 12:42:42 PM 36.3031 -77.8936 60° Northeast 446 513 33,000  Level Washington Center
Sun 12:43:42 PM 36.3661 -77.7586 60° Northeast 446 513 33,000  Level Washington Center
Sun 12:44:43 PM 36.4178 -77.6542 58° Northeast 446 513 33,000  Level Washington Center
Sun 12:45:43 PM 36.4831 -77.5089 61° Northeast 441 507 33,000  Level Washington Center
Sun 12:46:41 PM 36.5456 -77.3758 60° Northeast 441 507 33,000  Level Washington Center
Sun 12:47:41 PM 36.6078 -77.2403 60° Northeast 441 507 33,000  Level Washington Center
Sun 12:48:42 PM 36.6681 -77.1094 60° Northeast 441 507 33,000  Level Washington Center
Sun 12:49:42 PM 36.7406 -76.9864 54° Northeast 441 507 33,000  Level Washington Center
Sun 12:50:42 PM 36.8333 -76.9025 36° Northeast 413 475 33,000  Level Washington Center
Sun 12:51:41 PM 36.9386 -76.8106 35° Northeast 411 473 33,000  Level Washington Center
Sun 12:52:41 PM 37.0289 -76.7261 37° Northeast 411 473 33,000  Level Washington Center
Sun 12:53:42 PM 37.1236 -76.6442 35° Northeast 411 473 33,000  Level Washington Center
Sun 12:54:42 PM 37.2161 -76.5594 36° Northeast 411 473 33,000  Level Washington Center
Sun 12:55:43 PM 37.3064 -76.4717 38° Northeast 411 473 33,000  Level Washington Center
Sun 12:56:41 PM 37.3989 -76.3917 34° Northeast 411 473 33,000  Level Washington Center
Sun 12:57:41 PM 37.4911 -76.3064 36° Northeast 406 467 33,000  Level Washington Center
Sun 12:58:41 PM 37.5814 -76.2233 36° Northeast 406 467 33,000  Level Washington Center
Sun 12:59:42 PM 37.6733 -76.1453 34° Northeast 406 467 33,000  Level Washington Center
Sun 01:00:42 PM 37.7633 -76.0672 34° Northeast 401 461 33,000  Level Washington Center
Sun 01:01:40 PM 37.8472 -75.9967 34° Northeast 401 461 33,000  Level Washington Center
Sun 01:02:41 PM 37.9411 -75.9289 30° Northeast 396 456 33,000  Level Washington Center
Sun 01:03:42 PM 38.0331 -75.8581 31° Northeast 386 444 33,000  Level Washington Center
Sun 01:04:43 PM 38.1272 -75.7869 31° Northeast 386 444 33,000  Level Washington Center
Sun 01:05:41 PM 38.2231 -75.7186 29° Northeast 386 444 33,000  Level Washington Center
Sun 01:06:42 PM 38.3275 -75.6419 30° Northeast 386 444 33,000  Level Washington Center
Sun 01:07:42 PM 38.4233 -75.5706 30° Northeast 386 444 33,000  Level Washington Center
Sun 01:08:41 PM 38.5192 -75.5042 28° Northeast 392 451 33,000  Level Washington Center
Sun 01:09:41 PM 38.6108 -75.4269 33° Northeast 392 451 33,000  Level Washington Center
Sun 01:10:42 PM 38.7067 -75.3575 29° Northeast 392 451 33,000  Level Washington Center
Sun 01:11:42 PM 38.8025 -75.2853 30° Northeast 392 451 33,000  Level Washington Center
Sun 01:12:42 PM 38.8981 -75.2128 31° Northeast 392 451 33,000  Level Washington Center
Sun 01:13:41 PM 38.9917 -75.1431 30° Northeast 392 451 33,000  Level Washington Center
Sun 01:14:42 PM 39.0831 -75.0647 34° Northeast 392 451 33,000  Level Washington Center
Sun 01:15:42 PM 39.1764 -74.9972 29° Northeast 392 451 33,000  Level Washington Center
Sun 01:16:43 PM 39.2700 -74.9242 31° Northeast 387 445 33,000  Level Washington Center
Sun 01:17:43 PM 39.3633 -74.8533 30° Northeast 387 445 33,000  Level Washington Center
Sun 01:18:41 PM 39.4567 -74.7797 31° Northeast 387 445 33,000  Level Washington Center
Sun 01:19:41 PM 39.5497 -74.7061 31° Northeast 387 445 33,000  Level Washington Center
Sun 01:22:02 PM 39.7764 -74.5333 30° Northeast 400 460 33,000  Level New York Center
Sun 01:23:02 PM 39.8686 -74.4544 33° Northeast 394 453 33,000  Level New York Center
Sun 01:24:02 PM 39.9625 -74.3811 31° Northeast 394 453 33,000  Level New York Center
Sun 01:25:02 PM 40.0564 -74.3072 31° Northeast 394 453 33,000 -50 Level New York Center
Sun 01:26:02 PM 40.1506 -74.2306 32° Northeast 394 453 32,900 -50 Descending New York Center
Sun 01:27:02 PM 40.2414 -74.1808 23° Northeast 387 445 32,900 50 Level New York Center
Sun 01:28:02 PM 40.3389 -74.1228 24° Northeast 387 445 33,000 -350 Climbing New York Center
Sun 01:29:02 PM 40.4383 -74.0706 22° Northeast 382 440 32,200 -1,400 Descending New York Center
Sun 01:30:02 PM 40.5317 -74.0122 25° Northeast 376 433 30,200 -2,209 Descending New York Center
Sun 01:31:45 PM 40.6928 -73.9247 22° Northeast 370 426 26,200 -2,268 Descending Boston Center
Sun 01:32:46 PM 40.8006 -73.8542 26° Northeast 361 415 24,000 -1,065 Descending Boston Center
Sun 01:33:49 PM 40.8792 -73.7592 42° Northeast 386 444 24,000 -197 Level Boston Center
Sun 01:34:48 PM 40.9617 -73.6825 35° Northeast 362 417 23,600 -488 Descending Boston Center
Sun 01:35:52 PM 41.0506 -73.6358 22° Northeast 342 394 23,000 -581 Descending Boston Center
Sun 01:36:52 PM 41.1428 -73.5858 22° Northeast 355 409 22,400 -934 Descending Boston Center
Sun 01:37:54 PM 41.2342 -73.5372 22° Northeast 356 410 21,100 -1,190 Descending Boston Center
Sun 01:38:53 PM 41.3242 -73.4894 22° Northeast 348 400 20,000 -1,050 Descending Boston Center
Sun 01:39:54 PM 41.4147 -73.4408 22° Northeast 332 382 19,000 -492 Descending Boston Center
Sun 01:40:55 PM 41.4983 -73.4325 North 304 350 19,000 -197 Level Boston Center
Sun 01:41:56 PM 41.5831 -73.4461 353° North 306 352 18,600 -1,041 Descending Boston Center
Sun 01:42:56 PM 41.6736 -73.4586 354° North 306 352 16,900 -1,500 Descending Boston Center
Sun 01:44:00 PM 41.7556 -73.4717 353° North 299 344 15,500 -1,355 Descending Boston Center
Sun 01:45:00 PM 41.8394 -73.4842 354° North 303 349 14,100 -1,388 Descending Boston Center
Sun 01:46:01 PM 41.9239 -73.4981 353° North 306 352 12,700 -1,426 Descending Boston Center
Sun 01:47:02 PM 42.0144 -73.5108 354° North 303 349 11,200 -990 Descending Boston Center
Sun 01:47:38 PM 42.0567 -73.5164 354° North 299 344 11,100 -300 Descending Boston Center
Sun 01:48:02 PM 42.0894 -73.5233 351° North 296 341 10,900  Descending Boston Center
Sun 01:48:27 PM 42.1264 -73.5219 North 296 341 11,100 98 Climbing Boston Center
Sun 01:49:03 PM 42.1731 -73.5144 North 300 345 11,000  Descending Boston Center
Sun 01:49:28 PM 42.2108 -73.5067 North 306 352 11,100 -98 Climbing Boston Center
Sun 01:50:04 PM 42.2572 -73.4978 North 303 349 10,900  Descending Boston Center
Sun 01:50:29 PM 42.2967 -73.4944 North 309 356 11,100  Climbing Boston Center
Sun 01:51:05 PM 42.3506 -73.4881 North 309 356 10,900 -295 Descending Boston Center
Sun 01:51:30 PM 42.3800 -73.4844 North 300 345 10,800 -1,116 Descending Boston Center
Sun 01:52:31 PM 42.4528 -73.4739 North 256 295 9,300 -1,537 Descending Boston Center
Sun 01:53:31 PM 42.5250 -73.4658 North 255 293 7,700 -1,636 Descending Boston Center
Sun 01:54:32 PM 42.5978 -73.4550 North 249 287 6,000 -1,820 Descending Boston Center
Sun 01:55:33 PM 42.6597 -73.4814 343° North 223 257 4,000 -1,180 Descending Boston Center
Sun 01:56:34 PM 42.7128 -73.5078 340° North 188 216 3,600 -454 Descending Boston Center
Sun 01:57:32 PM 42.7411 -73.5522 311° West 156 180 3,100 -458 Descending Boston Center
Sun 01:58:32 PM 42.7617 -73.6056 298° West 157 181 2,700 -492 Descending Boston Center
Sun 01:59:34 PM 42.7550 -73.6644 261° West 153 176 2,100 -488 Descending Boston Center
Sun 02:00:35 PM 42.7506 -73.7125 263° West 127 146 1,700 -645 Descending Boston Center
Sun 02:01:35 PM 42.7503 -73.7619 270° West 129 148 800 -900 Descending Boston Center

Login

Don't have an account? Register now (free) for customized features, flight alerts, and more!